Wade, Mississippi
Current Conditions -  °F | °C
As of 8:53 PM on Wednesday 26 Nov 2014 (Local Time) from KPQL Reporting Station
Clear Clear  
Wind Chill: 57°   Ceiling: Unl
Heat Index: 57°   Visibility: 10mi
Dew Point: 45°   Wind: 6mph
Humidity: 64%   Direction: 240°WSW
Pressure: 30.2"   Gusts: NA
Location:  30.3649°N, 88.5432°W
Report Text: KPQL 270253Z AUTO 24005KT 10SM CLR 14/07 A3020 RMK AO2 SLP228 T01390072 53004 TSNO
Loading
Personal Weather Stations






























Interactive Weather Map New forecast layout! Learn more

10-Day Weather Forecast

Advertisements
Track Severe Weather on mobile